Flight Number: EUR1169 Duration: 1:45
Departure: Warsaw Okecie (EPWA) at 08:30 Distance: 623 Nm
Arrival: Moscow Sheremetyevo (UUEE) at 10:15 Equipment: B737

Weather Information
Warszawa-Okecie, Poland (EPWA) 52-10N 020-58E 107M Jan 21, 2019 - 07:00 AM EST / 2019.01.21 1200 UTC
Wind: from the W (280 degrees) at 8 MPH (7 KT) (direction variable):0
Visibility: 3 mile(s):0
Sky conditions: mostly cloudy Weather: light snow; mist Temperature: 28 F (-2 C)
Windchill: 19 F (-7 C):1 Dew Point: 24 F (-4 C) Relative Humidity: 86% Pressure (altimeter): 30.18 in. Hg (1022 hPa)
ob: EPWA 211200Z 28007KT 250V310 5000 -SN BR BKN006 M02/M04 Q1022 NOSIG cycle: 12
Sunrise: 06:35 Sunset: 14:59 (UTC)

Moscow / Sheremet'Ye , Russia (UUEE) 55-59N 037-30E Jan 21, 2019 - 06:30 AM EST / 2019.01.21 1130 UTC
Wind: from the WNW (290 degrees) at 11 MPH (10 KT):0
Visibility: 5 mile(s):0
Sky conditions: mostly cloudy Weather: light snow showers; Cumulonimbus clouds observed Temperature: 17 F (-8 C)
Windchill: 5 F (-15 C):1 Dew Point: 12 F (-11 C) Relative Humidity: 78% Pressure (altimeter): 29.74 in. Hg (1007 hPa)
ob: UUEE 211130Z 29005MPS 9000 -SHSN BKN042CB M08/M11 Q1007 R24L/450340 R24C/450336 NOSIG cycle: 11
Sunrise: 05:48 Sunset: 13:35 (UTC)

TAF:2019/01/21 12:21 TAF UUEE 211055Z 2112/2212 29005MPS 9000 BKN011 TXM08/2112Z TNM18/2203Z TEMPO 2112/2121 2100 -SHSN FEW007 BKN012CB

Previous Pireps for this route
Date Aircraft Flight time Fuel used Landing rate On time
2012-11-05B73701.5510436-281No
2013-07-08B73701.5413701-389No
2013-08-09B73701.5110394-263No
2014-03-10B73701.519791-164Yes
2014-04-15B73701.4910284-321Yes
2014-06-01B73701.4010306-203Yes
2015-03-15B7371.55108000Charter
(pireps marked green are flown by you)

Route map